Aviation Digital Data Service (ADDS)

Output produced by METARs form (0849 UTC 25 September 2016)
found at http://aviationweather.gov/adds/metars/
 
KHKY 250531Z 2506/2606 00000KT P6SM FEW250 
     FM251200 05004KT P6SM BKN015 
     FM251800 07005KT P6SM SCT030 
     PROB30 2521/2603 4SM -SHRA OVC007 
     FM260300 07004KT 4SM BR OVC007